sensor_id;sensor_type;location;lat;lon;timestamp;P1;durP1;ratioP1;P2;durP2;ratioP2
14408;SDS011;7289;50.706;4.992;2023-04-03T00:01:16;0.30;;;0.30;;
14408;SDS011;7289;50.706;4.992;2023-04-03T00:03:45;0.30;;;0.30;;
14408;SDS011;7289;50.706;4.992;2023-04-03T00:06:14;0.30;;;0.30;;
14408;SDS011;7289;50.706;4.992;2023-04-03T00:08:43;0.30;;;0.30;;
14408;SDS011;7289;50.706;4.992;2023-04-03T00:11:11;0.30;;;0.30;;
14408;SDS011;7289;50.706;4.992;2023-04-03T00:13:39;0.40;;;0.40;;
14408;SDS011;7289;50.706;4.992;2023-04-03T00:16:08;0.33;;;0.33;;
14408;SDS011;7289;50.706;4.992;2023-04-03T00:18:37;0.30;;;0.30;;
14408;SDS011;7289;50.706;4.992;2023-04-03T00:21:07;0.30;;;0.30;;
14408;SDS011;7289;50.706;4.992;2023-04-03T00:23:38;0.30;;;0.30;;
14408;SDS011;7289;50.706;4.992;2023-04-03T00:26:06;0.30;;;0.30;;
14408;SDS011;7289;50.706;4.992;2023-04-03T00:28:36;0.30;;;0.30;;
14408;SDS011;7289;50.706;4.992;2023-04-03T00:31:04;0.30;;;0.30;;
14408;SDS011;7289;50.706;4.992;2023-04-03T00:33:32;0.30;;;0.30;;
14408;SDS011;7289;50.706;4.992;2023-04-03T00:36:05;0.30;;;0.30;;
14408;SDS011;7289;50.706;4.992;2023-04-03T00:38:34;0.30;;;0.30;;
14408;SDS011;7289;50.706;4.992;2023-04-03T00:41:04;0.30;;;0.30;;
14408;SDS011;7289;50.706;4.992;2023-04-03T00:43:32;0.30;;;0.30;;
14408;SDS011;7289;50.706;4.992;2023-04-03T00:46:00;0.30;;;0.30;;
14408;SDS011;7289;50.706;4.992;2023-04-03T00:48:30;0.30;;;0.30;;
14408;SDS011;7289;50.706;4.992;2023-04-03T00:51:00;0.30;;;0.30;;
14408;SDS011;7289;50.706;4.992;2023-04-03T00:53:30;0.23;;;0.23;;
14408;SDS011;7289;50.706;4.992;2023-04-03T00:56:01;0.30;;;0.30;;
14408;SDS011;7289;50.706;4.992;2023-04-03T00:58:36;0.30;;;0.30;;
14408;SDS011;7289;50.706;4.992;2023-04-03T01:01:08;0.40;;;0.40;;
14408;SDS011;7289;50.706;4.992;2023-04-03T01:03:40;0.30;;;0.30;;
14408;SDS011;7289;50.706;4.992;2023-04-03T01:06:08;0.30;;;0.30;;
14408;SDS011;7289;50.706;4.992;2023-04-03T01:08:37;0.30;;;0.30;;
14408;SDS011;7289;50.706;4.992;2023-04-03T01:11:06;0.30;;;0.30;;
14408;SDS011;7289;50.706;4.992;2023-04-03T01:13:35;0.30;;;0.30;;
14408;SDS011;7289;50.706;4.992;2023-04-03T01:16:06;0.30;;;0.30;;
14408;SDS011;7289;50.706;4.992;2023-04-03T01:18:35;0.30;;;0.30;;
14408;SDS011;7289;50.706;4.992;2023-04-03T01:24:06;0.30;;;0.30;;
14408;SDS011;7289;50.706;4.992;2023-04-03T01:26:46;0.30;;;0.30;;
14408;SDS011;7289;50.706;4.992;2023-04-03T01:29:17;0.30;;;0.30;;
14408;SDS011;7289;50.706;4.992;2023-04-03T01:31:49;0.30;;;0.30;;
14408;SDS011;7289;50.706;4.992;2023-04-03T01:34:18;0.37;;;0.37;;
14408;SDS011;7289;50.706;4.992;2023-04-03T01:36:48;0.30;;;0.30;;
14408;SDS011;7289;50.706;4.992;2023-04-03T01:39:17;0.30;;;0.30;;
14408;SDS011;7289;50.706;4.992;2023-04-03T01:41:46;0.40;;;0.40;;
14408;SDS011;7289;50.706;4.992;2023-04-03T01:44:24;0.30;;;0.30;;
14408;SDS011;7289;50.706;4.992;2023-04-03T01:46:54;0.30;;;0.30;;
14408;SDS011;7289;50.706;4.992;2023-04-03T01:49:24;0.30;;;0.30;;
14408;SDS011;7289;50.706;4.992;2023-04-03T01:51:53;0.30;;;0.30;;
14408;SDS011;7289;50.706;4.992;2023-04-03T01:54:22;0.40;;;0.40;;
14408;SDS011;7289;50.706;4.992;2023-04-03T01:56:50;0.30;;;0.30;;
14408;SDS011;7289;50.706;4.992;2023-04-03T01:59:20;0.30;;;0.30;;
14408;SDS011;7289;50.706;4.992;2023-04-03T02:01:48;0.40;;;0.40;;
14408;SDS011;7289;50.706;4.992;2023-04-03T02:04:18;0.30;;;0.30;;
14408;SDS011;7289;50.706;4.992;2023-04-03T02:06:46;0.30;;;0.30;;
14408;SDS011;7289;50.706;4.992;2023-04-03T02:09:14;0.30;;;0.30;;
14408;SDS011;7289;50.706;4.992;2023-04-03T02:11:42;0.40;;;0.40;;
14408;SDS011;7289;50.706;4.992;2023-04-03T02:14:12;0.30;;;0.30;;
14408;SDS011;7289;50.706;4.992;2023-04-03T02:16:40;0.30;;;0.30;;
14408;SDS011;7289;50.706;4.992;2023-04-03T02:19:09;0.30;;;0.30;;
14408;SDS011;7289;50.706;4.992;2023-04-03T02:21:38;0.37;;;0.37;;
14408;SDS011;7289;50.706;4.992;2023-04-03T02:24:07;0.30;;;0.30;;
14408;SDS011;7289;50.706;4.992;2023-04-03T02:26:35;0.40;;;0.40;;
14408;SDS011;7289;50.706;4.992;2023-04-03T02:29:04;0.30;;;0.30;;
14408;SDS011;7289;50.706;4.992;2023-04-03T02:31:34;0.30;;;0.30;;
14408;SDS011;7289;50.706;4.992;2023-04-03T02:34:03;0.30;;;0.30;;
14408;SDS011;7289;50.706;4.992;2023-04-03T02:36:34;0.30;;;0.30;;
14408;SDS011;7289;50.706;4.992;2023-04-03T02:39:07;0.30;;;0.30;;
14408;SDS011;7289;50.706;4.992;2023-04-03T02:41:35;0.30;;;0.30;;
14408;SDS011;7289;50.706;4.992;2023-04-03T02:44:10;0.30;;;0.30;;
14408;SDS011;7289;50.706;4.992;2023-04-03T02:46:39;0.30;;;0.30;;
14408;SDS011;7289;50.706;4.992;2023-04-03T02:49:07;0.40;;;0.40;;
14408;SDS011;7289;50.706;4.992;2023-04-03T02:51:35;0.40;;;0.40;;
14408;SDS011;7289;50.706;4.992;2023-04-03T02:54:04;0.30;;;0.30;;
14408;SDS011;7289;50.706;4.992;2023-04-03T02:56:36;0.40;;;0.40;;
14408;SDS011;7289;50.706;4.992;2023-04-03T02:59:05;0.30;;;0.30;;
14408;SDS011;7289;50.706;4.992;2023-04-03T03:01:36;0.33;;;0.33;;
14408;SDS011;7289;50.706;4.992;2023-04-03T03:04:04;0.40;;;0.40;;
14408;SDS011;7289;50.706;4.992;2023-04-03T03:06:32;0.40;;;0.40;;
14408;SDS011;7289;50.706;4.992;2023-04-03T03:09:01;0.40;;;0.40;;
14408;SDS011;7289;50.706;4.992;2023-04-03T03:11:30;0.30;;;0.30;;
14408;SDS011;7289;50.706;4.992;2023-04-03T03:13:59;0.30;;;0.30;;
14408;SDS011;7289;50.706;4.992;2023-04-03T03:16:27;0.40;;;0.40;;
14408;SDS011;7289;50.706;4.992;2023-04-03T03:18:56;0.40;;;0.40;;
14408;SDS011;7289;50.706;4.992;2023-04-03T03:21:24;0.30;;;0.30;;
14408;SDS011;7289;50.706;4.992;2023-04-03T03:23:53;0.40;;;0.40;;
14408;SDS011;7289;50.706;4.992;2023-04-03T03:26:21;0.30;;;0.30;;
14408;SDS011;7289;50.706;4.992;2023-04-03T03:28:50;0.30;;;0.30;;
14408;SDS011;7289;50.706;4.992;2023-04-03T03:31:19;0.37;;;0.37;;
14408;SDS011;7289;50.706;4.992;2023-04-03T03:33:48;0.30;;;0.30;;
14408;SDS011;7289;50.706;4.992;2023-04-03T03:36:16;0.30;;;0.30;;
14408;SDS011;7289;50.706;4.992;2023-04-03T03:38:44;0.40;;;0.40;;
14408;SDS011;7289;50.706;4.992;2023-04-03T03:41:13;0.40;;;0.40;;
14408;SDS011;7289;50.706;4.992;2023-04-03T03:43:43;0.40;;;0.40;;
14408;SDS011;7289;50.706;4.992;2023-04-03T03:46:13;0.30;;;0.30;;
14408;SDS011;7289;50.706;4.992;2023-04-03T03:48:43;0.30;;;0.30;;
14408;SDS011;7289;50.706;4.992;2023-04-03T03:51:11;0.30;;;0.30;;
14408;SDS011;7289;50.706;4.992;2023-04-03T03:53:39;0.30;;;0.30;;
14408;SDS011;7289;50.706;4.992;2023-04-03T03:56:12;0.40;;;0.40;;
14408;SDS011;7289;50.706;4.992;2023-04-03T03:58:41;0.40;;;0.40;;
14408;SDS011;7289;50.706;4.992;2023-04-03T04:01:10;0.33;;;0.33;;
14408;SDS011;7289;50.706;4.992;2023-04-03T04:03:43;0.40;;;0.40;;
14408;SDS011;7289;50.706;4.992;2023-04-03T04:06:16;0.40;;;0.40;;
14408;SDS011;7289;50.706;4.992;2023-04-03T04:08:44;0.30;;;0.30;;
14408;SDS011;7289;50.706;4.992;2023-04-03T04:11:14;0.37;;;0.37;;
14408;SDS011;7289;50.706;4.992;2023-04-03T04:13:44;0.40;;;0.40;;
14408;SDS011;7289;50.706;4.992;2023-04-03T04:16:13;0.37;;;0.37;;
14408;SDS011;7289;50.706;4.992;2023-04-03T04:18:44;0.30;;;0.30;;
14408;SDS011;7289;50.706;4.992;2023-04-03T04:21:12;0.33;;;0.33;;
14408;SDS011;7289;50.706;4.992;2023-04-03T04:23:41;0.30;;;0.30;;
14408;SDS011;7289;50.706;4.992;2023-04-03T04:26:09;0.40;;;0.40;;
14408;SDS011;7289;50.706;4.992;2023-04-03T04:28:39;0.40;;;0.40;;
14408;SDS011;7289;50.706;4.992;2023-04-03T04:31:07;0.40;;;0.40;;
14408;SDS011;7289;50.706;4.992;2023-04-03T04:33:36;0.37;;;0.37;;
14408;SDS011;7289;50.706;4.992;2023-04-03T04:36:07;0.40;;;0.40;;
14408;SDS011;7289;50.706;4.992;2023-04-03T04:38:36;0.40;;;0.40;;
14408;SDS011;7289;50.706;4.992;2023-04-03T04:41:05;0.30;;;0.30;;
14408;SDS011;7289;50.706;4.992;2023-04-03T04:43:34;0.30;;;0.30;;
14408;SDS011;7289;50.706;4.992;2023-04-03T04:46:05;0.30;;;0.30;;
14408;SDS011;7289;50.706;4.992;2023-04-03T04:48:40;0.30;;;0.30;;
14408;SDS011;7289;50.706;4.992;2023-04-03T04:51:11;0.30;;;0.30;;
14408;SDS011;7289;50.706;4.992;2023-04-03T04:53:40;0.40;;;0.40;;
14408;SDS011;7289;50.706;4.992;2023-04-03T04:56:11;0.33;;;0.33;;
14408;SDS011;7289;50.706;4.992;2023-04-03T04:58:41;0.30;;;0.30;;
14408;SDS011;7289;50.706;4.992;2023-04-03T05:01:09;0.40;;;0.40;;
14408;SDS011;7289;50.706;4.992;2023-04-03T05:03:47;0.30;;;0.30;;
14408;SDS011;7289;50.706;4.992;2023-04-03T05:06:19;0.40;;;0.40;;
14408;SDS011;7289;50.706;4.992;2023-04-03T05:08:48;0.30;;;0.30;;
14408;SDS011;7289;50.706;4.992;2023-04-03T05:11:17;0.40;;;0.40;;
14408;SDS011;7289;50.706;4.992;2023-04-03T05:13:48;0.30;;;0.30;;
14408;SDS011;7289;50.706;4.992;2023-04-03T05:16:17;0.30;;;0.30;;
14408;SDS011;7289;50.706;4.992;2023-04-03T05:18:46;0.40;;;0.40;;
14408;SDS011;7289;50.706;4.992;2023-04-03T05:21:20;0.40;;;0.40;;
14408;SDS011;7289;50.706;4.992;2023-04-03T05:23:51;0.40;;;0.40;;
14408;SDS011;7289;50.706;4.992;2023-04-03T05:26:19;0.40;;;0.40;;
14408;SDS011;7289;50.706;4.992;2023-04-03T05:28:49;0.30;;;0.30;;
14408;SDS011;7289;50.706;4.992;2023-04-03T05:31:19;0.40;;;0.40;;
14408;SDS011;7289;50.706;4.992;2023-04-03T05:33:48;0.40;;;0.40;;
14408;SDS011;7289;50.706;4.992;2023-04-03T05:36:17;0.40;;;0.40;;
14408;SDS011;7289;50.706;4.992;2023-04-03T05:38:50;0.40;;;0.40;;
14408;SDS011;7289;50.706;4.992;2023-04-03T05:41:19;0.33;;;0.33;;
14408;SDS011;7289;50.706;4.992;2023-04-03T05:43:48;0.30;;;0.30;;
14408;SDS011;7289;50.706;4.992;2023-04-03T05:46:19;0.37;;;0.37;;
14408;SDS011;7289;50.706;4.992;2023-04-03T05:48:53;0.30;;;0.30;;
14408;SDS011;7289;50.706;4.992;2023-04-03T05:51:27;0.40;;;0.40;;
14408;SDS011;7289;50.706;4.992;2023-04-03T05:54:09;0.40;;;0.40;;
14408;SDS011;7289;50.706;4.992;2023-04-03T05:56:40;0.40;;;0.40;;
14408;SDS011;7289;50.706;4.992;2023-04-03T05:59:08;0.30;;;0.30;;
14408;SDS011;7289;50.706;4.992;2023-04-03T06:01:37;0.40;;;0.40;;
14408;SDS011;7289;50.706;4.992;2023-04-03T06:04:06;0.40;;;0.40;;
14408;SDS011;7289;50.706;4.992;2023-04-03T06:06:43;0.40;;;0.40;;
14408;SDS011;7289;50.706;4.992;2023-04-03T06:09:17;0.40;;;0.40;;
14408;SDS011;7289;50.706;4.992;2023-04-03T06:11:47;0.40;;;0.40;;
14408;SDS011;7289;50.706;4.992;2023-04-03T06:14:16;0.40;;;0.40;;
14408;SDS011;7289;50.706;4.992;2023-04-03T06:16:45;0.30;;;0.30;;
14408;SDS011;7289;50.706;4.992;2023-04-03T06:19:13;0.40;;;0.40;;
14408;SDS011;7289;50.706;4.992;2023-04-03T06:21:47;0.40;;;0.40;;
14408;SDS011;7289;50.706;4.992;2023-04-03T06:24:17;0.30;;;0.30;;
14408;SDS011;7289;50.706;4.992;2023-04-03T06:26:46;0.30;;;0.30;;
14408;SDS011;7289;50.706;4.992;2023-04-03T06:29:15;0.30;;;0.30;;
14408;SDS011;7289;50.706;4.992;2023-04-03T06:31:43;0.30;;;0.30;;
14408;SDS011;7289;50.706;4.992;2023-04-03T06:34:12;0.30;;;0.30;;
14408;SDS011;7289;50.706;4.992;2023-04-03T06:36:41;0.40;;;0.40;;
14408;SDS011;7289;50.706;4.992;2023-04-03T06:39:10;0.40;;;0.40;;
14408;SDS011;7289;50.706;4.992;2023-04-03T06:41:43;0.30;;;0.30;;
14408;SDS011;7289;50.706;4.992;2023-04-03T06:44:12;0.30;;;0.30;;
14408;SDS011;7289;50.706;4.992;2023-04-03T06:46:42;0.30;;;0.30;;
14408;SDS011;7289;50.706;4.992;2023-04-03T06:49:13;0.30;;;0.30;;
14408;SDS011;7289;50.706;4.992;2023-04-03T06:51:41;0.30;;;0.30;;
14408;SDS011;7289;50.706;4.992;2023-04-03T06:54:10;0.30;;;0.30;;
14408;SDS011;7289;50.706;4.992;2023-04-03T06:56:38;0.40;;;0.40;;
14408;SDS011;7289;50.706;4.992;2023-04-03T06:59:09;0.30;;;0.30;;
14408;SDS011;7289;50.706;4.992;2023-04-03T07:01:38;0.30;;;0.30;;
14408;SDS011;7289;50.706;4.992;2023-04-03T07:04:07;0.30;;;0.30;;
14408;SDS011;7289;50.706;4.992;2023-04-03T07:06:35;0.30;;;0.30;;
14408;SDS011;7289;50.706;4.992;2023-04-03T07:09:04;0.20;;;0.20;;
14408;SDS011;7289;50.706;4.992;2023-04-03T07:11:32;0.30;;;0.30;;
14408;SDS011;7289;50.706;4.992;2023-04-03T07:14:01;0.30;;;0.30;;
14408;SDS011;7289;50.706;4.992;2023-04-03T07:16:31;0.40;;;0.40;;
14408;SDS011;7289;50.706;4.992;2023-04-03T07:18:59;0.30;;;0.30;;
14408;SDS011;7289;50.706;4.992;2023-04-03T07:21:28;0.30;;;0.30;;
14408;SDS011;7289;50.706;4.992;2023-04-03T07:23:57;0.30;;;0.30;;
14408;SDS011;7289;50.706;4.992;2023-04-03T07:26:25;0.30;;;0.30;;
14408;SDS011;7289;50.706;4.992;2023-04-03T07:28:54;0.30;;;0.30;;
14408;SDS011;7289;50.706;4.992;2023-04-03T07:31:22;0.20;;;0.20;;
14408;SDS011;7289;50.706;4.992;2023-04-03T07:33:53;0.30;;;0.30;;
14408;SDS011;7289;50.706;4.992;2023-04-03T07:36:22;0.30;;;0.30;;
14408;SDS011;7289;50.706;4.992;2023-04-03T07:38:50;0.30;;;0.30;;
14408;SDS011;7289;50.706;4.992;2023-04-03T07:41:19;0.30;;;0.30;;
14408;SDS011;7289;50.706;4.992;2023-04-03T07:43:49;0.30;;;0.30;;
14408;SDS011;7289;50.706;4.992;2023-04-03T07:46:18;0.30;;;0.30;;
14408;SDS011;7289;50.706;4.992;2023-04-03T07:48:47;0.30;;;0.30;;
14408;SDS011;7289;50.706;4.992;2023-04-03T07:51:17;0.23;;;0.23;;
14408;SDS011;7289;50.706;4.992;2023-04-03T07:53:45;0.30;;;0.30;;
14408;SDS011;7289;50.706;4.992;2023-04-03T07:56:16;0.20;;;0.20;;
14408;SDS011;7289;50.706;4.992;2023-04-03T07:58:44;0.20;;;0.20;;
14408;SDS011;7289;50.706;4.992;2023-04-03T08:01:13;0.20;;;0.20;;
14408;SDS011;7289;50.706;4.992;2023-04-03T08:03:41;0.20;;;0.20;;
14408;SDS011;7289;50.706;4.992;2023-04-03T08:06:10;0.20;;;0.20;;
14408;SDS011;7289;50.706;4.992;2023-04-03T08:08:44;0.20;;;0.20;;
14408;SDS011;7289;50.706;4.992;2023-04-03T08:11:13;0.20;;;0.20;;
14408;SDS011;7289;50.706;4.992;2023-04-03T08:13:41;0.20;;;0.20;;
14408;SDS011;7289;50.706;4.992;2023-04-03T08:16:10;0.20;;;0.20;;
14408;SDS011;7289;50.706;4.992;2023-04-03T08:18:41;0.20;;;0.20;;
14408;SDS011;7289;50.706;4.992;2023-04-03T08:21:09;0.20;;;0.20;;
14408;SDS011;7289;50.706;4.992;2023-04-03T08:23:39;0.20;;;0.20;;
14408;SDS011;7289;50.706;4.992;2023-04-03T08:26:11;0.20;;;0.20;;
14408;SDS011;7289;50.706;4.992;2023-04-03T08:28:40;0.20;;;0.20;;
14408;SDS011;7289;50.706;4.992;2023-04-03T08:31:10;0.20;;;0.20;;
14408;SDS011;7289;50.706;4.992;2023-04-03T08:33:40;0.20;;;0.20;;
14408;SDS011;7289;50.706;4.992;2023-04-03T08:36:16;0.20;;;0.20;;
14408;SDS011;7289;50.706;4.992;2023-04-03T08:38:46;0.20;;;0.20;;
14408;SDS011;7289;50.706;4.992;2023-04-03T08:41:19;0.20;;;0.20;;
14408;SDS011;7289;50.706;4.992;2023-04-03T08:43:58;0.20;;;0.20;;
14408;SDS011;7289;50.706;4.992;2023-04-03T08:46:35;0.20;;;0.20;;
14408;SDS011;7289;50.706;4.992;2023-04-03T08:49:16;0.20;;;0.20;;
14408;SDS011;7289;50.706;4.992;2023-04-03T08:51:51;0.20;;;0.20;;
14408;SDS011;7289;50.706;4.992;2023-04-03T08:54:22;0.20;;;0.20;;
14408;SDS011;7289;50.706;4.992;2023-04-03T08:56:56;0.20;;;0.20;;
14408;SDS011;7289;50.706;4.992;2023-04-03T08:59:28;0.20;;;0.20;;
14408;SDS011;7289;50.706;4.992;2023-04-03T09:01:58;0.20;;;0.20;;
14408;SDS011;7289;50.706;4.992;2023-04-03T09:04:33;0.20;;;0.20;;
14408;SDS011;7289;50.706;4.992;2023-04-03T09:07:03;0.20;;;0.20;;
14408;SDS011;7289;50.706;4.992;2023-04-03T09:09:37;0.20;;;0.20;;
14408;SDS011;7289;50.706;4.992;2023-04-03T09:12:14;0.20;;;0.20;;
14408;SDS011;7289;50.706;4.992;2023-04-03T09:14:53;0.20;;;0.20;;
14408;SDS011;7289;50.706;4.992;2023-04-03T09:17:33;0.20;;;0.20;;
14408;SDS011;7289;50.706;4.992;2023-04-03T09:20:14;0.20;;;0.20;;
14408;SDS011;7289;50.706;4.992;2023-04-03T09:22:50;0.20;;;0.20;;
14408;SDS011;7289;50.706;4.992;2023-04-03T09:25:20;0.20;;;0.20;;
14408;SDS011;7289;50.706;4.992;2023-04-03T09:27:51;0.20;;;0.20;;
14408;SDS011;7289;50.706;4.992;2023-04-03T09:30:21;0.20;;;0.20;;
14408;SDS011;7289;50.706;4.992;2023-04-03T09:32:52;0.20;;;0.20;;
14408;SDS011;7289;50.706;4.992;2023-04-03T09:35:24;0.17;;;0.17;;
14408;SDS011;7289;50.706;4.992;2023-04-03T09:38:17;0.20;;;0.20;;
14408;SDS011;7289;50.706;4.992;2023-04-03T09:40:47;0.20;;;0.20;;
14408;SDS011;7289;50.706;4.992;2023-04-03T09:43:27;0.20;;;0.20;;
14408;SDS011;7289;50.706;4.992;2023-04-03T09:48:50;0.20;;;0.20;;
14408;SDS011;7289;50.706;4.992;2023-04-03T09:51:34;0.20;;;0.20;;
14408;SDS011;7289;50.706;4.992;2023-04-03T09:54:04;0.10;;;0.10;;
14408;SDS011;7289;50.706;4.992;2023-04-03T09:56:53;0.20;;;0.20;;
14408;SDS011;7289;50.706;4.992;2023-04-03T09:59:24;0.20;;;0.20;;
14408;SDS011;7289;50.706;4.992;2023-04-03T10:01:57;0.10;;;0.10;;
14408;SDS011;7289;50.706;4.992;2023-04-03T10:04:28;0.10;;;0.10;;
14408;SDS011;7289;50.706;4.992;2023-04-03T10:09:56;0.20;;;0.20;;
14408;SDS011;7289;50.706;4.992;2023-04-03T10:12:26;0.20;;;0.20;;
14408;SDS011;7289;50.706;4.992;2023-04-03T10:14:56;0.20;;;0.20;;
14408;SDS011;7289;50.706;4.992;2023-04-03T10:17:32;0.20;;;0.20;;
14408;SDS011;7289;50.706;4.992;2023-04-03T10:20:16;0.20;;;0.20;;
14408;SDS011;7289;50.706;4.992;2023-04-03T10:22:56;0.20;;;0.20;;
14408;SDS011;7289;50.706;4.992;2023-04-03T10:25:40;0.20;;;0.20;;
14408;SDS011;7289;50.706;4.992;2023-04-03T10:28:16;0.20;;;0.20;;
14408;SDS011;7289;50.706;4.992;2023-04-03T10:30:54;0.20;;;0.20;;
14408;SDS011;7289;50.706;4.992;2023-04-03T10:33:32;0.20;;;0.20;;
14408;SDS011;7289;50.706;4.992;2023-04-03T10:36:15;0.20;;;0.20;;
14408;SDS011;7289;50.706;4.992;2023-04-03T10:38:51;0.20;;;0.20;;
14408;SDS011;7289;50.706;4.992;2023-04-03T10:41:29;0.20;;;0.20;;
14408;SDS011;7289;50.706;4.992;2023-04-03T10:44:10;0.20;;;0.20;;
14408;SDS011;7289;50.706;4.992;2023-04-03T10:46:46;0.10;;;0.10;;
14408;SDS011;7289;50.706;4.992;2023-04-03T10:49:20;0.20;;;0.20;;
14408;SDS011;7289;50.706;4.992;2023-04-03T10:51:57;0.20;;;0.20;;
14408;SDS011;7289;50.706;4.992;2023-04-03T10:54:34;0.20;;;0.20;;
14408;SDS011;7289;50.706;4.992;2023-04-03T10:57:08;0.20;;;0.20;;
14408;SDS011;7289;50.706;4.992;2023-04-03T10:59:41;0.20;;;0.20;;
14408;SDS011;7289;50.706;4.992;2023-04-03T11:02:16;0.20;;;0.20;;
14408;SDS011;7289;50.706;4.992;2023-04-03T11:04:51;0.20;;;0.20;;
14408;SDS011;7289;50.706;4.992;2023-04-03T11:07:25;0.20;;;0.20;;
14408;SDS011;7289;50.706;4.992;2023-04-03T11:09:59;0.20;;;0.20;;
14408;SDS011;7289;50.706;4.992;2023-04-03T11:12:35;0.10;;;0.10;;
14408;SDS011;7289;50.706;4.992;2023-04-03T11:15:11;0.20;;;0.20;;
14408;SDS011;7289;50.706;4.992;2023-04-03T11:17:45;0.20;;;0.20;;
14408;SDS011;7289;50.706;4.992;2023-04-03T11:20:19;0.20;;;0.20;;
14408;SDS011;7289;50.706;4.992;2023-04-03T11:22:57;0.10;;;0.10;;
14408;SDS011;7289;50.706;4.992;2023-04-03T11:25:30;0.20;;;0.20;;
14408;SDS011;7289;50.706;4.992;2023-04-03T11:28:04;0.20;;;0.20;;
14408;SDS011;7289;50.706;4.992;2023-04-03T11:30:39;0.10;;;0.10;;
14408;SDS011;7289;50.706;4.992;2023-04-03T11:33:23;0.20;;;0.20;;
14408;SDS011;7289;50.706;4.992;2023-04-03T11:36:00;0.20;;;0.20;;
14408;SDS011;7289;50.706;4.992;2023-04-03T11:38:51;0.10;;;0.10;;
14408;SDS011;7289;50.706;4.992;2023-04-03T11:41:26;0.10;;;0.10;;
14408;SDS011;7289;50.706;4.992;2023-04-03T11:43:57;0.10;;;0.10;;
14408;SDS011;7289;50.706;4.992;2023-04-03T11:46:48;0.20;;;0.20;;
14408;SDS011;7289;50.706;4.992;2023-04-03T11:55:45;0.20;;;0.20;;
14408;SDS011;7289;50.706;4.992;2023-04-03T11:58:21;0.10;;;0.10;;
14408;SDS011;7289;50.706;4.992;2023-04-03T12:01:01;0.20;;;0.20;;
14408;SDS011;7289;50.706;4.992;2023-04-03T12:13:00;0.20;;;0.20;;
14408;SDS011;7289;50.706;4.992;2023-04-03T12:21:23;0.20;;;0.20;;
14408;SDS011;7289;50.706;4.992;2023-04-03T12:24:32;0.20;;;0.20;;
14408;SDS011;7289;50.706;4.992;2023-04-03T12:27:02;0.20;;;0.20;;
14408;SDS011;7289;50.706;4.992;2023-04-03T12:29:33;0.20;;;0.20;;
14408;SDS011;7289;50.706;4.992;2023-04-03T12:32:12;0.10;;;0.10;;
14408;SDS011;7289;50.706;4.992;2023-04-03T12:37:40;0.20;;;0.20;;
14408;SDS011;7289;50.706;4.992;2023-04-03T12:40:23;0.20;;;0.20;;
14408;SDS011;7289;50.706;4.992;2023-04-03T12:43:08;0.10;;;0.10;;
14408;SDS011;7289;50.706;4.992;2023-04-03T12:45:56;0.10;;;0.10;;
14408;SDS011;7289;50.706;4.992;2023-04-03T12:48:30;0.10;;;0.10;;
14408;SDS011;7289;50.706;4.992;2023-04-03T12:51:01;0.13;;;0.13;;
14408;SDS011;7289;50.706;4.992;2023-04-03T12:53:31;0.20;;;0.20;;
14408;SDS011;7289;50.706;4.992;2023-04-03T12:58:51;0.10;;;0.10;;
14408;SDS011;7289;50.706;4.992;2023-04-03T13:01:20;0.20;;;0.20;;
14408;SDS011;7289;50.706;4.992;2023-04-03T13:03:52;0.10;;;0.10;;
14408;SDS011;7289;50.706;4.992;2023-04-03T13:06:23;0.20;;;0.20;;
14408;SDS011;7289;50.706;4.992;2023-04-03T13:08:56;0.10;;;0.10;;
14408;SDS011;7289;50.706;4.992;2023-04-03T13:11:30;0.10;;;0.10;;
14408;SDS011;7289;50.706;4.992;2023-04-03T13:14:04;0.10;;;0.10;;
14408;SDS011;7289;50.706;4.992;2023-04-03T13:16:41;0.10;;;0.10;;
14408;SDS011;7289;50.706;4.992;2023-04-03T13:19:19;0.10;;;0.10;;
14408;SDS011;7289;50.706;4.992;2023-04-03T13:21:49;0.10;;;0.10;;
14408;SDS011;7289;50.706;4.992;2023-04-03T13:24:22;0.13;;;0.13;;
14408;SDS011;7289;50.706;4.992;2023-04-03T13:26:52;0.13;;;0.13;;
14408;SDS011;7289;50.706;4.992;2023-04-03T13:29:22;0.20;;;0.20;;
14408;SDS011;7289;50.706;4.992;2023-04-03T13:31:57;0.10;;;0.10;;
14408;SDS011;7289;50.706;4.992;2023-04-03T13:34:28;0.10;;;0.10;;
14408;SDS011;7289;50.706;4.992;2023-04-03T13:36:58;0.20;;;0.20;;
14408;SDS011;7289;50.706;4.992;2023-04-03T13:39:30;0.10;;;0.10;;
14408;SDS011;7289;50.706;4.992;2023-04-03T13:42:01;0.10;;;0.10;;
14408;SDS011;7289;50.706;4.992;2023-04-03T13:44:42;0.20;;;0.20;;
14408;SDS011;7289;50.706;4.992;2023-04-03T13:47:14;0.10;;;0.10;;
14408;SDS011;7289;50.706;4.992;2023-04-03T13:49:58;0.10;;;0.10;;
14408;SDS011;7289;50.706;4.992;2023-04-03T13:52:29;0.10;;;0.10;;
14408;SDS011;7289;50.706;4.992;2023-04-03T13:55:03;0.10;;;0.10;;
14408;SDS011;7289;50.706;4.992;2023-04-03T13:57:53;0.10;;;0.10;;
14408;SDS011;7289;50.706;4.992;2023-04-03T14:00:28;0.10;;;0.10;;
14408;SDS011;7289;50.706;4.992;2023-04-03T14:02:59;0.10;;;0.10;;
14408;SDS011;7289;50.706;4.992;2023-04-03T14:05:29;0.10;;;0.10;;
14408;SDS011;7289;50.706;4.992;2023-04-03T14:07:57;0.10;;;0.10;;
14408;SDS011;7289;50.706;4.992;2023-04-03T14:10:26;0.10;;;0.10;;
14408;SDS011;7289;50.706;4.992;2023-04-03T14:12:55;0.17;;;0.17;;
14408;SDS011;7289;50.706;4.992;2023-04-03T14:15:25;0.10;;;0.10;;
14408;SDS011;7289;50.706;4.992;2023-04-03T14:17:55;0.10;;;0.10;;
14408;SDS011;7289;50.706;4.992;2023-04-03T14:20:27;0.10;;;0.10;;
14408;SDS011;7289;50.706;4.992;2023-04-03T14:22:56;0.10;;;0.10;;
14408;SDS011;7289;50.706;4.992;2023-04-03T14:25:24;0.10;;;0.10;;
14408;SDS011;7289;50.706;4.992;2023-04-03T14:27:53;0.10;;;0.10;;
14408;SDS011;7289;50.706;4.992;2023-04-03T14:30:23;0.20;;;0.20;;
14408;SDS011;7289;50.706;4.992;2023-04-03T14:32:53;0.10;;;0.10;;
14408;SDS011;7289;50.706;4.992;2023-04-03T14:35:23;0.10;;;0.10;;
14408;SDS011;7289;50.706;4.992;2023-04-03T14:37:52;0.10;;;0.10;;
14408;SDS011;7289;50.706;4.992;2023-04-03T14:40:24;0.10;;;0.10;;
14408;SDS011;7289;50.706;4.992;2023-04-03T14:42:53;0.10;;;0.10;;
14408;SDS011;7289;50.706;4.992;2023-04-03T14:45:25;0.20;;;0.20;;
14408;SDS011;7289;50.706;4.992;2023-04-03T14:47:54;0.10;;;0.10;;
14408;SDS011;7289;50.706;4.992;2023-04-03T14:50:25;0.10;;;0.10;;
14408;SDS011;7289;50.706;4.992;2023-04-03T14:52:55;0.10;;;0.10;;
14408;SDS011;7289;50.706;4.992;2023-04-03T14:55:26;0.15;;;0.15;;
14408;SDS011;7289;50.706;4.992;2023-04-03T14:57:54;0.10;;;0.10;;
14408;SDS011;7289;50.706;4.992;2023-04-03T15:00:22;0.10;;;0.10;;
14408;SDS011;7289;50.706;4.992;2023-04-03T15:02:52;0.10;;;0.10;;
14408;SDS011;7289;50.706;4.992;2023-04-03T15:05:21;0.10;;;0.10;;
14408;SDS011;7289;50.706;4.992;2023-04-03T15:07:50;0.10;;;0.10;;
14408;SDS011;7289;50.706;4.992;2023-04-03T15:10:22;0.20;;;0.20;;
14408;SDS011;7289;50.706;4.992;2023-04-03T15:12:52;0.10;;;0.10;;
14408;SDS011;7289;50.706;4.992;2023-04-03T15:15:22;0.10;;;0.10;;
14408;SDS011;7289;50.706;4.992;2023-04-03T15:17:53;0.10;;;0.10;;
14408;SDS011;7289;50.706;4.992;2023-04-03T15:20:25;0.20;;;0.20;;
14408;SDS011;7289;50.706;4.992;2023-04-03T15:22:57;0.10;;;0.10;;
14408;SDS011;7289;50.706;4.992;2023-04-03T15:25:27;0.10;;;0.10;;
14408;SDS011;7289;50.706;4.992;2023-04-03T15:27:56;0.10;;;0.10;;
14408;SDS011;7289;50.706;4.992;2023-04-03T15:30:25;0.20;;;0.20;;
14408;SDS011;7289;50.706;4.992;2023-04-03T15:32:54;0.10;;;0.10;;
14408;SDS011;7289;50.706;4.992;2023-04-03T15:35:23;0.20;;;0.20;;
14408;SDS011;7289;50.706;4.992;2023-04-03T15:37:51;0.10;;;0.10;;
14408;SDS011;7289;50.706;4.992;2023-04-03T15:40:19;0.10;;;0.10;;
14408;SDS011;7289;50.706;4.992;2023-04-03T15:42:48;0.10;;;0.10;;
14408;SDS011;7289;50.706;4.992;2023-04-03T15:45:19;0.10;;;0.10;;
14408;SDS011;7289;50.706;4.992;2023-04-03T15:47:48;0.10;;;0.10;;
14408;SDS011;7289;50.706;4.992;2023-04-03T15:50:18;0.10;;;0.10;;
14408;SDS011;7289;50.706;4.992;2023-04-03T15:52:48;0.10;;;0.10;;
14408;SDS011;7289;50.706;4.992;2023-04-03T15:55:20;0.17;;;0.17;;
14408;SDS011;7289;50.706;4.992;2023-04-03T15:57:49;0.20;;;0.20;;
14408;SDS011;7289;50.706;4.992;2023-04-03T16:00:17;0.10;;;0.10;;
14408;SDS011;7289;50.706;4.992;2023-04-03T16:02:46;0.10;;;0.10;;